sensor_id;sensor_type;location;lat;lon;timestamp;pressure;altitude;pressure_sealevel;temperature;humidity
29239;BME280;16267;48.194;11.546;2023-04-06T00:14:53;96196.41;;;2.43;52.63
29239;BME280;16267;48.194;11.546;2023-04-06T00:17:18;96195.22;;;2.41;53.25
29239;BME280;16267;48.194;11.546;2023-04-06T00:19:44;96191.78;;;2.40;52.99
29239;BME280;16267;48.194;11.546;2023-04-06T00:22:10;96194.03;;;2.38;52.89
29239;BME280;16267;48.194;11.546;2023-04-06T00:24:36;96191.72;;;2.37;53.27
29239;BME280;16267;48.194;11.546;2023-04-06T00:27:03;96188.63;;;2.35;52.86
29239;BME280;16267;48.194;11.546;2023-04-06T00:29:28;96191.63;;;2.33;52.85
29239;BME280;16267;48.194;11.546;2023-04-06T00:31:54;96189.00;;;2.33;52.98
29239;BME280;16267;48.194;11.546;2023-04-06T00:34:20;96193.84;;;2.31;52.86
29239;BME280;16267;48.194;11.546;2023-04-06T00:36:46;96187.03;;;2.30;52.88
29239;BME280;16267;48.194;11.546;2023-04-06T00:39:12;96187.69;;;2.27;52.80
29239;BME280;16267;48.194;11.546;2023-04-06T00:41:39;96186.16;;;2.26;53.26
29239;BME280;16267;48.194;11.546;2023-04-06T00:44:09;96188.38;;;2.24;53.15
29239;BME280;16267;48.194;11.546;2023-04-06T00:46:35;96187.16;;;2.21;53.12
29239;BME280;16267;48.194;11.546;2023-04-06T00:49:02;96187.16;;;2.21;53.04
29239;BME280;16267;48.194;11.546;2023-04-06T00:51:27;96187.09;;;2.18;52.99
29239;BME280;16267;48.194;11.546;2023-04-06T00:53:53;96186.25;;;2.14;53.51
29239;BME280;16267;48.194;11.546;2023-04-06T00:56:20;96191.09;;;2.12;53.48
29239;BME280;16267;48.194;11.546;2023-04-06T00:58:49;96190.66;;;2.10;53.32
29239;BME280;16267;48.194;11.546;2023-04-06T01:01:16;96186.03;;;2.07;53.44
29239;BME280;16267;48.194;11.546;2023-04-06T01:03:42;96182.19;;;2.04;53.24
29239;BME280;16267;48.194;11.546;2023-04-06T01:06:09;96191.25;;;2.03;53.34
29239;BME280;16267;48.194;11.546;2023-04-06T01:08:36;96188.94;;;2.01;53.85
29239;BME280;16267;48.194;11.546;2023-04-06T01:11:02;96196.13;;;2.01;53.64
29239;BME280;16267;48.194;11.546;2023-04-06T01:13:28;96184.00;;;2.00;53.64
29239;BME280;16267;48.194;11.546;2023-04-06T01:15:54;96191.50;;;1.98;53.71
29239;BME280;16267;48.194;11.546;2023-04-06T01:18:26;96185.00;;;1.95;53.63
29239;BME280;16267;48.194;11.546;2023-04-06T01:20:52;96186.44;;;1.93;53.65
29239;BME280;16267;48.194;11.546;2023-04-06T01:23:18;96184.47;;;1.90;53.84
29239;BME280;16267;48.194;11.546;2023-04-06T01:25:44;96180.63;;;1.87;54.13
29239;BME280;16267;48.194;11.546;2023-04-06T01:28:09;96175.25;;;1.84;53.86
29239;BME280;16267;48.194;11.546;2023-04-06T01:30:35;96174.81;;;1.82;53.83
29239;BME280;16267;48.194;11.546;2023-04-06T01:33:05;96174.38;;;1.79;53.99
29239;BME280;16267;48.194;11.546;2023-04-06T01:35:31;96180.00;;;1.78;54.33
29239;BME280;16267;48.194;11.546;2023-04-06T01:37:57;96179.56;;;1.76;54.33
29239;BME280;16267;48.194;11.546;2023-04-06T01:40:23;96183.00;;;1.76;54.10
29239;BME280;16267;48.194;11.546;2023-04-06T01:42:49;96168.91;;;1.72;54.43
29239;BME280;16267;48.194;11.546;2023-04-06T01:45:15;96170.00;;;1.71;54.26
29239;BME280;16267;48.194;11.546;2023-04-06T01:47:41;96168.47;;;1.70;54.45
29239;BME280;16267;48.194;11.546;2023-04-06T01:50:07;96166.16;;;1.69;54.22
29239;BME280;16267;48.194;11.546;2023-04-06T01:52:33;96167.59;;;1.66;54.30
29239;BME280;16267;48.194;11.546;2023-04-06T01:54:59;96163.41;;;1.65;54.26
29239;BME280;16267;48.194;11.546;2023-04-06T01:57:25;96169.06;;;1.64;54.16
29239;BME280;16267;48.194;11.546;2023-04-06T01:59:51;96162.56;;;1.61;54.33
29239;BME280;16267;48.194;11.546;2023-04-06T02:02:20;96173.47;;;1.60;54.22
29239;BME280;16267;48.194;11.546;2023-04-06T02:04:46;96168.84;;;1.56;54.74
29239;BME280;16267;48.194;11.546;2023-04-06T02:07:11;96158.59;;;1.55;54.73
29239;BME280;16267;48.194;11.546;2023-04-06T02:09:37;96170.28;;;1.54;54.96
29239;BME280;16267;48.194;11.546;2023-04-06T02:12:03;96162.72;;;1.52;54.73
29239;BME280;16267;48.194;11.546;2023-04-06T02:14:29;96167.56;;;1.50;54.70
29239;BME280;16267;48.194;11.546;2023-04-06T02:16:55;96164.16;;;1.50;55.09
29239;BME280;16267;48.194;11.546;2023-04-06T02:19:21;96158.06;;;1.49;55.43
29239;BME280;16267;48.194;11.546;2023-04-06T02:21:47;96160.28;;;1.47;55.21
29239;BME280;16267;48.194;11.546;2023-04-06T02:24:13;96166.66;;;1.46;55.18
29239;BME280;16267;48.194;11.546;2023-04-06T02:26:39;96162.06;;;1.43;55.50
29239;BME280;16267;48.194;11.546;2023-04-06T02:29:06;96162.41;;;1.42;55.24
29239;BME280;16267;48.194;11.546;2023-04-06T02:31:32;96157.78;;;1.39;55.28
29239;BME280;16267;48.194;11.546;2023-04-06T02:33:59;96159.56;;;1.34;55.89
29239;BME280;16267;48.194;11.546;2023-04-06T02:36:25;96153.81;;;1.32;55.95
29239;BME280;16267;48.194;11.546;2023-04-06T02:38:51;96162.09;;;1.31;55.66
29239;BME280;16267;48.194;11.546;2023-04-06T02:41:17;96160.56;;;1.30;55.80
29239;BME280;16267;48.194;11.546;2023-04-06T02:43:43;96164.63;;;1.27;55.80
29239;BME280;16267;48.194;11.546;2023-04-06T02:46:08;96155.16;;;1.26;55.76
29239;BME280;16267;48.194;11.546;2023-04-06T02:48:34;96157.38;;;1.24;56.15
29239;BME280;16267;48.194;11.546;2023-04-06T02:51:02;96150.56;;;1.23;55.95
29239;BME280;16267;48.194;11.546;2023-04-06T02:53:28;96152.75;;;1.21;55.83
29239;BME280;16267;48.194;11.546;2023-04-06T02:55:54;96150.47;;;1.20;55.81
29239;BME280;16267;48.194;11.546;2023-04-06T02:58:21;96155.75;;;1.20;55.62
29239;BME280;16267;48.194;11.546;2023-04-06T03:00:47;96153.44;;;1.18;56.20
29239;BME280;16267;48.194;11.546;2023-04-06T03:03:12;96154.53;;;1.17;55.95
29239;BME280;16267;48.194;11.546;2023-04-06T03:05:39;96153.34;;;1.15;56.14
29239;BME280;16267;48.194;11.546;2023-04-06T03:08:05;96149.47;;;1.12;56.56
29239;BME280;16267;48.194;11.546;2023-04-06T03:10:31;96149.38;;;1.08;56.43
29239;BME280;16267;48.194;11.546;2023-04-06T03:12:57;96153.47;;;1.06;56.88
29239;BME280;16267;48.194;11.546;2023-04-06T03:15:22;96156.78;;;1.03;57.28
29239;BME280;16267;48.194;11.546;2023-04-06T03:17:48;96161.94;;;0.99;57.41
29239;BME280;16267;48.194;11.546;2023-04-06T03:20:23;96154.69;;;0.96;57.30
29239;BME280;16267;48.194;11.546;2023-04-06T03:22:49;96150.50;;;0.95;57.16
29239;BME280;16267;48.194;11.546;2023-04-06T03:25:15;96158.75;;;0.94;57.33
29239;BME280;16267;48.194;11.546;2023-04-06T03:27:41;96159.88;;;0.93;57.36
29239;BME280;16267;48.194;11.546;2023-04-06T03:30:07;96157.53;;;0.91;57.39
29239;BME280;16267;48.194;11.546;2023-04-06T03:32:33;96158.22;;;0.88;57.81
29239;BME280;16267;48.194;11.546;2023-04-06T03:34:58;96155.91;;;0.86;57.68
29239;BME280;16267;48.194;11.546;2023-04-06T03:37:24;96157.81;;;0.86;57.78
29239;BME280;16267;48.194;11.546;2023-04-06T03:39:51;96154.38;;;0.85;57.65
29239;BME280;16267;48.194;11.546;2023-04-06T03:42:17;96156.25;;;0.85;57.47
29239;BME280;16267;48.194;11.546;2023-04-06T03:44:43;96152.84;;;0.84;57.50
29239;BME280;16267;48.194;11.546;2023-04-06T03:47:09;96164.53;;;0.83;58.04
29239;BME280;16267;48.194;11.546;2023-04-06T03:49:34;96156.91;;;0.82;58.03
29239;BME280;16267;48.194;11.546;2023-04-06T03:52:01;96164.75;;;0.78;58.38
29239;BME280;16267;48.194;11.546;2023-04-06T03:54:27;96164.28;;;0.76;58.58
29239;BME280;16267;48.194;11.546;2023-04-06T03:56:52;96173.31;;;0.75;58.89
29239;BME280;16267;48.194;11.546;2023-04-06T03:59:18;96171.22;;;0.56;59.92
29239;BME280;16267;48.194;11.546;2023-04-06T04:01:44;96171.78;;;0.62;60.52
29239;BME280;16267;48.194;11.546;2023-04-06T04:04:11;96168.38;;;0.61;60.02
29239;BME280;16267;48.194;11.546;2023-04-06T04:06:37;96171.78;;;0.62;60.15
29239;BME280;16267;48.194;11.546;2023-04-06T04:09:03;96181.13;;;0.59;60.23
29239;BME280;16267;48.194;11.546;2023-04-06T04:11:29;96179.59;;;0.58;59.63
29239;BME280;16267;48.194;11.546;2023-04-06T04:13:54;96177.72;;;0.59;59.24
29239;BME280;16267;48.194;11.546;2023-04-06T04:16:20;96175.09;;;0.59;59.43
29239;BME280;16267;48.194;11.546;2023-04-06T04:18:46;96181.91;;;0.60;59.22
29239;BME280;16267;48.194;11.546;2023-04-06T04:21:14;96185.66;;;0.59;59.49
29239;BME280;16267;48.194;11.546;2023-04-06T04:23:39;96180.69;;;0.57;59.98
29239;BME280;16267;48.194;11.546;2023-04-06T04:26:05;96182.88;;;0.55;60.37
29239;BME280;16267;48.194;11.546;2023-04-06T04:28:31;96184.75;;;0.55;60.17
29239;BME280;16267;48.194;11.546;2023-04-06T04:30:57;96187.41;;;0.55;60.15
29239;BME280;16267;48.194;11.546;2023-04-06T04:33:23;96191.91;;;0.54;60.13
29239;BME280;16267;48.194;11.546;2023-04-06T04:35:48;96182.47;;;0.53;59.85
29239;BME280;16267;48.194;11.546;2023-04-06T04:38:14;96179.81;;;0.53;59.83
29239;BME280;16267;48.194;11.546;2023-04-06T04:40:40;96190.38;;;0.53;59.76
29239;BME280;16267;48.194;11.546;2023-04-06T04:43:06;96184.00;;;0.54;59.44
29239;BME280;16267;48.194;11.546;2023-04-06T04:45:32;96187.75;;;0.53;59.66
29239;BME280;16267;48.194;11.546;2023-04-06T04:47:57;96184.34;;;0.53;59.91
29239;BME280;16267;48.194;11.546;2023-04-06T04:50:23;96185.41;;;0.52;60.43
29239;BME280;16267;48.194;11.546;2023-04-06T04:52:49;96190.69;;;0.52;60.88
29239;BME280;16267;48.194;11.546;2023-04-06T04:55:15;96183.13;;;0.50;61.05
29239;BME280;16267;48.194;11.546;2023-04-06T04:57:41;96178.16;;;0.49;61.26
29239;BME280;16267;48.194;11.546;2023-04-06T05:00:07;96191.69;;;0.47;61.50
29239;BME280;16267;48.194;11.546;2023-04-06T05:05:44;96186.84;;;0.49;60.69
29239;BME280;16267;48.194;11.546;2023-04-06T05:08:29;96186.84;;;0.49;60.54
29239;BME280;16267;48.194;11.546;2023-04-06T05:10:55;96188.41;;;0.50;60.35
29239;BME280;16267;48.194;11.546;2023-04-06T05:14:10;96186.53;;;0.51;60.26
29239;BME280;16267;48.194;11.546;2023-04-06T05:16:36;96184.75;;;0.55;60.31
29239;BME280;16267;48.194;11.546;2023-04-06T05:19:07;96190.81;;;0.55;60.37
29239;BME280;16267;48.194;11.546;2023-04-06T05:21:33;96185.97;;;0.57;60.17
29239;BME280;16267;48.194;11.546;2023-04-06T05:24:02;96194.34;;;0.59;60.31
29239;BME280;16267;48.194;11.546;2023-04-06T05:26:31;96192.91;;;0.62;60.43
29239;BME280;16267;48.194;11.546;2023-04-06T05:29:02;96194.44;;;0.63;60.80
29239;BME280;16267;48.194;11.546;2023-04-06T05:32:19;96198.75;;;0.68;60.90
29239;BME280;16267;48.194;11.546;2023-04-06T05:34:48;96195.44;;;0.71;61.87
29239;BME280;16267;48.194;11.546;2023-04-06T05:37:21;96193.25;;;0.73;62.26
29239;BME280;16267;48.194;11.546;2023-04-06T05:39:47;96191.47;;;0.77;62.94
29239;BME280;16267;48.194;11.546;2023-04-06T05:42:13;96193.91;;;0.82;62.75
29239;BME280;16267;48.194;11.546;2023-04-06T05:44:38;96196.66;;;0.85;62.79
29239;BME280;16267;48.194;11.546;2023-04-06T05:47:04;96197.53;;;0.89;62.88
29239;BME280;16267;48.194;11.546;2023-04-06T05:49:30;96192.03;;;0.95;63.76
29239;BME280;16267;48.194;11.546;2023-04-06T05:51:56;96193.66;;;0.99;64.29
29239;BME280;16267;48.194;11.546;2023-04-06T05:54:22;96195.31;;;1.04;64.52
29239;BME280;16267;48.194;11.546;2023-04-06T05:56:48;96198.19;;;1.11;64.34
29239;BME280;16267;48.194;11.546;2023-04-06T05:59:13;96199.50;;;1.17;63.89
29239;BME280;16267;48.194;11.546;2023-04-06T06:01:39;96195.81;;;1.22;64.20
29239;BME280;16267;48.194;11.546;2023-04-06T06:04:05;96200.56;;;1.28;65.40
29239;BME280;16267;48.194;11.546;2023-04-06T06:06:31;96200.75;;;1.36;65.77
29239;BME280;16267;48.194;11.546;2023-04-06T06:08:57;96200.19;;;1.42;66.35
29239;BME280;16267;48.194;11.546;2023-04-06T06:11:26;96200.38;;;1.49;66.88
29239;BME280;16267;48.194;11.546;2023-04-06T06:13:52;96195.31;;;1.56;66.58
29239;BME280;16267;48.194;11.546;2023-04-06T06:16:19;96200.00;;;1.63;66.46
29239;BME280;16267;48.194;11.546;2023-04-06T06:18:45;96197.56;;;1.70;66.39
29239;BME280;16267;48.194;11.546;2023-04-06T06:21:11;96198.94;;;1.80;66.30
29239;BME280;16267;48.194;11.546;2023-04-06T06:23:42;96198.91;;;1.92;65.26
29239;BME280;16267;48.194;11.546;2023-04-06T06:26:08;96190.91;;;2.05;65.21
29239;BME280;16267;48.194;11.546;2023-04-06T06:28:34;96198.13;;;2.20;65.22
29239;BME280;16267;48.194;11.546;2023-04-06T06:31:00;96200.44;;;2.37;64.68
29239;BME280;16267;48.194;11.546;2023-04-06T06:33:26;96201.66;;;2.56;64.27
29239;BME280;16267;48.194;11.546;2023-04-06T06:35:52;96205.06;;;2.72;63.31
29239;BME280;16267;48.194;11.546;2023-04-06T06:38:18;96195.22;;;2.88;62.60
29239;BME280;16267;48.194;11.546;2023-04-06T06:40:45;96188.75;;;3.05;60.19
29239;BME280;16267;48.194;11.546;2023-04-06T06:43:11;96195.47;;;3.19;58.50
29239;BME280;16267;48.194;11.546;2023-04-06T06:45:37;96187.75;;;3.29;58.53
29239;BME280;16267;48.194;11.546;2023-04-06T06:48:03;96197.47;;;3.41;58.26
29239;BME280;16267;48.194;11.546;2023-04-06T06:50:29;96199.56;;;3.51;57.85
29239;BME280;16267;48.194;11.546;2023-04-06T06:52:55;96202.59;;;3.69;58.16
29239;BME280;16267;48.194;11.546;2023-04-06T06:55:21;96200.91;;;3.80;58.10
29239;BME280;16267;48.194;11.546;2023-04-06T06:57:46;96199.28;;;3.95;57.79
29239;BME280;16267;48.194;11.546;2023-04-06T07:00:13;96196.53;;;4.11;56.27
29239;BME280;16267;48.194;11.546;2023-04-06T07:02:40;96200.97;;;4.27;56.06
29239;BME280;16267;48.194;11.546;2023-04-06T07:05:06;96195.22;;;4.44;55.02
29239;BME280;16267;48.194;11.546;2023-04-06T07:07:33;96200.75;;;4.58;55.18
29239;BME280;16267;48.194;11.546;2023-04-06T07:10:00;96203.31;;;4.74;54.58
29239;BME280;16267;48.194;11.546;2023-04-06T07:12:26;96204.75;;;4.95;56.79
29239;BME280;16267;48.194;11.546;2023-04-06T07:14:52;96198.16;;;5.11;54.41
29239;BME280;16267;48.194;11.546;2023-04-06T07:17:18;96199.06;;;5.23;51.15
29239;BME280;16267;48.194;11.546;2023-04-06T07:19:44;96195.75;;;5.29;49.48
29239;BME280;16267;48.194;11.546;2023-04-06T07:22:11;96195.41;;;5.34;46.38
29239;BME280;16267;48.194;11.546;2023-04-06T07:24:37;96193.56;;;5.39;47.46
29239;BME280;16267;48.194;11.546;2023-04-06T07:27:03;96201.69;;;5.49;48.57
29239;BME280;16267;48.194;11.546;2023-04-06T07:29:29;96201.03;;;5.59;48.57
29239;BME280;16267;48.194;11.546;2023-04-06T07:31:55;96198.94;;;5.72;49.62
29239;BME280;16267;48.194;11.546;2023-04-06T07:34:22;96200.09;;;5.75;46.05
29239;BME280;16267;48.194;11.546;2023-04-06T07:36:48;96204.59;;;5.71;44.77
29239;BME280;16267;48.194;11.546;2023-04-06T07:39:14;96197.63;;;5.93;46.10
29239;BME280;16267;48.194;11.546;2023-04-06T07:41:40;96197.63;;;5.93;45.39
29239;BME280;16267;48.194;11.546;2023-04-06T07:44:07;96202.72;;;6.01;44.97
29239;BME280;16267;48.194;11.546;2023-04-06T07:46:32;96205.03;;;6.07;44.78
29239;BME280;16267;48.194;11.546;2023-04-06T07:49:00;96203.25;;;6.18;43.67
29239;BME280;16267;48.194;11.546;2023-04-06T07:51:27;96204.53;;;6.31;43.02
29239;BME280;16267;48.194;11.546;2023-04-06T07:53:52;96198.53;;;6.41;41.65
29239;BME280;16267;48.194;11.546;2023-04-06T07:56:18;96197.19;;;6.62;42.26
29239;BME280;16267;48.194;11.546;2023-04-06T07:58:44;96199.66;;;6.85;44.13
29239;BME280;16267;48.194;11.546;2023-04-06T08:01:10;96198.28;;;7.05;43.17
29239;BME280;16267;48.194;11.546;2023-04-06T08:03:36;96194.94;;;7.19;41.39
29239;BME280;16267;48.194;11.546;2023-04-06T08:06:03;96189.31;;;7.38;41.48
29239;BME280;16267;48.194;11.546;2023-04-06T08:08:29;96192.75;;;7.43;41.21
29239;BME280;16267;48.194;11.546;2023-04-06T08:10:55;96198.56;;;7.52;40.04
29239;BME280;16267;48.194;11.546;2023-04-06T08:13:21;96197.38;;;7.46;39.45
29239;BME280;16267;48.194;11.546;2023-04-06T08:15:46;96189.44;;;7.60;39.16
29239;BME280;16267;48.194;11.546;2023-04-06T08:18:12;96195.13;;;7.58;39.57
29239;BME280;16267;48.194;11.546;2023-04-06T08:20:39;96204.38;;;7.72;40.21
29239;BME280;16267;48.194;11.546;2023-04-06T08:23:05;96201.34;;;7.80;40.53
29239;BME280;16267;48.194;11.546;2023-04-06T08:25:34;96202.47;;;7.76;38.35
29239;BME280;16267;48.194;11.546;2023-04-06T08:28:01;96200.94;;;7.75;37.33
29239;BME280;16267;48.194;11.546;2023-04-06T08:30:27;96198.66;;;7.80;37.33
29239;BME280;16267;48.194;11.546;2023-04-06T08:32:53;96196.03;;;7.91;37.20
29239;BME280;16267;48.194;11.546;2023-04-06T08:35:19;96199.88;;;7.94;37.39
29239;BME280;16267;48.194;11.546;2023-04-06T08:37:45;96197.66;;;8.24;38.56
29239;BME280;16267;48.194;11.546;2023-04-06T08:40:12;96201.91;;;8.47;38.62
29239;BME280;16267;48.194;11.546;2023-04-06T08:42:47;96198.50;;;8.57;38.44
29239;BME280;16267;48.194;11.546;2023-04-06T08:45:16;96201.53;;;8.70;38.86
29239;BME280;16267;48.194;11.546;2023-04-06T08:47:42;96197.72;;;8.89;38.06
29239;BME280;16267;48.194;11.546;2023-04-06T08:50:10;96193.91;;;8.90;36.20
29239;BME280;16267;48.194;11.546;2023-04-06T08:52:37;96183.16;;;9.11;38.01
29239;BME280;16267;48.194;11.546;2023-04-06T08:55:04;96195.78;;;9.32;38.55
29239;BME280;16267;48.194;11.546;2023-04-06T08:57:31;96182.31;;;9.50;38.03
29239;BME280;16267;48.194;11.546;2023-04-06T08:59:58;96181.50;;;9.64;37.48
29239;BME280;16267;48.194;11.546;2023-04-06T09:02:26;96180.28;;;9.83;37.69
29239;BME280;16267;48.194;11.546;2023-04-06T09:04:53;96186.75;;;9.93;36.95
29239;BME280;16267;48.194;11.546;2023-04-06T09:07:21;96188.69;;;9.92;36.09
29239;BME280;16267;48.194;11.546;2023-04-06T09:09:47;96178.03;;;9.74;34.50
29239;BME280;16267;48.194;11.546;2023-04-06T09:12:27;96192.94;;;9.82;35.11
29239;BME280;16267;48.194;11.546;2023-04-06T09:14:54;96186.03;;;9.78;34.55
29239;BME280;16267;48.194;11.546;2023-04-06T09:17:29;96183.28;;;9.99;35.04
29239;BME280;16267;48.194;11.546;2023-04-06T09:19:56;96188.22;;;10.04;33.77
29239;BME280;16267;48.194;11.546;2023-04-06T09:22:22;96191.69;;;10.01;33.58
29239;BME280;16267;48.194;11.546;2023-04-06T09:24:53;96181.69;;;10.13;34.70
29239;BME280;16267;48.194;11.546;2023-04-06T09:27:34;96185.06;;;10.31;35.63
29239;BME280;16267;48.194;11.546;2023-04-06T09:30:05;96176.53;;;10.43;35.87
29239;BME280;16267;48.194;11.546;2023-04-06T09:32:31;96187.72;;;10.35;34.36
29239;BME280;16267;48.194;11.546;2023-04-06T09:35:10;96180.38;;;10.42;33.35
29239;BME280;16267;48.194;11.546;2023-04-06T09:37:36;96177.22;;;10.55;34.06
29239;BME280;16267;48.194;11.546;2023-04-06T09:40:07;96181.72;;;10.68;34.78
29239;BME280;16267;48.194;11.546;2023-04-06T09:42:34;96177.78;;;10.80;34.86
29239;BME280;16267;48.194;11.546;2023-04-06T09:45:03;96180.38;;;10.91;34.09
29239;BME280;16267;48.194;11.546;2023-04-06T09:47:31;96175.03;;;10.91;34.33
29239;BME280;16267;48.194;11.546;2023-04-06T09:49:59;96167.16;;;11.11;34.95
29239;BME280;16267;48.194;11.546;2023-04-06T09:52:37;96170.31;;;11.06;33.22
29239;BME280;16267;48.194;11.546;2023-04-06T09:55:05;96170.47;;;11.26;33.81
29239;BME280;16267;48.194;11.546;2023-04-06T10:00:21;96162.94;;;11.10;32.79
29239;BME280;16267;48.194;11.546;2023-04-06T10:03:24;96161.25;;;11.27;34.21
29239;BME280;16267;48.194;11.546;2023-04-06T10:05:59;96161.06;;;11.45;33.82
29239;BME280;16267;48.194;11.546;2023-04-06T10:08:28;96161.41;;;11.47;32.53
29239;BME280;16267;48.194;11.546;2023-04-06T10:10:55;96158.66;;;11.54;32.27
29239;BME280;16267;48.194;11.546;2023-04-06T10:13:24;96149.66;;;11.68;33.88
29239;BME280;16267;48.194;11.546;2023-04-06T10:15:51;96149.06;;;11.87;34.18
29239;BME280;16267;48.194;11.546;2023-04-06T10:18:17;96153.13;;;11.68;32.44
29239;BME280;16267;48.194;11.546;2023-04-06T10:21:20;96140.94;;;11.91;33.54
29239;BME280;16267;48.194;11.546;2023-04-06T10:23:58;96154.63;;;12.03;33.17
29239;BME280;16267;48.194;11.546;2023-04-06T10:26:24;96142.53;;;12.15;32.69
29239;BME280;16267;48.194;11.546;2023-04-06T10:28:51;96140.00;;;12.04;31.77
29239;BME280;16267;48.194;11.546;2023-04-06T10:31:25;96144.22;;;12.05;32.06
29239;BME280;16267;48.194;11.546;2023-04-06T10:34:02;96146.56;;;12.03;31.67
29239;BME280;16267;48.194;11.546;2023-04-06T10:36:33;96149.38;;;11.93;30.88
29239;BME280;16267;48.194;11.546;2023-04-06T10:39:03;96143.00;;;12.10;33.62
29239;BME280;16267;48.194;11.546;2023-04-06T10:41:44;96135.91;;;12.23;31.82
29239;BME280;16267;48.194;11.546;2023-04-06T10:44:24;96130.75;;;12.33;31.55
29239;BME280;16267;48.194;11.546;2023-04-06T10:46:56;96127.03;;;12.50;33.38
29239;BME280;16267;48.194;11.546;2023-04-06T10:49:22;96127.94;;;12.67;34.31
29239;BME280;16267;48.194;11.546;2023-04-06T10:51:55;96116.81;;;12.65;32.26
29239;BME280;16267;48.194;11.546;2023-04-06T10:54:23;96126.34;;;12.69;31.56
29239;BME280;16267;48.194;11.546;2023-04-06T10:56:49;96125.84;;;12.75;31.33
29239;BME280;16267;48.194;11.546;2023-04-06T10:59:21;96112.63;;;12.84;31.36
29239;BME280;16267;48.194;11.546;2023-04-06T11:01:49;96115.44;;;13.00;32.90
29239;BME280;16267;48.194;11.546;2023-04-06T11:04:19;96116.91;;;12.58;30.23
29239;BME280;16267;48.194;11.546;2023-04-06T11:06:51;96118.38;;;12.62;30.89
29239;BME280;16267;48.194;11.546;2023-04-06T11:09:28;96114.09;;;12.65;30.23
29239;BME280;16267;48.194;11.546;2023-04-06T11:11:54;96115.03;;;12.31;30.05
29239;BME280;16267;48.194;11.546;2023-04-06T11:14:21;96111.00;;;12.43;31.61
29239;BME280;16267;48.194;11.546;2023-04-06T11:16:48;96104.44;;;12.44;32.25
29239;BME280;16267;48.194;11.546;2023-04-06T11:19:16;96115.09;;;12.51;32.08
29239;BME280;16267;48.194;11.546;2023-04-06T11:21:49;96111.88;;;12.60;32.73
29239;BME280;16267;48.194;11.546;2023-04-06T11:24:23;96100.56;;;12.68;33.19
29239;BME280;16267;48.194;11.546;2023-04-06T11:26:59;96105.91;;;12.72;32.66
29239;BME280;16267;48.194;11.546;2023-04-06T11:29:29;96099.00;;;12.71;31.78
29239;BME280;16267;48.194;11.546;2023-04-06T11:32:06;96094.38;;;12.71;31.82
29239;BME280;16267;48.194;11.546;2023-04-06T11:34:39;96093.22;;;12.72;31.75
29239;BME280;16267;48.194;11.546;2023-04-06T11:37:12;96091.75;;;12.68;32.21
29239;BME280;16267;48.194;11.546;2023-04-06T11:39:50;96094.22;;;12.59;31.93
29239;BME280;16267;48.194;11.546;2023-04-06T11:42:24;96092.03;;;12.73;33.61
29239;BME280;16267;48.194;11.546;2023-04-06T11:44:57;96090.81;;;12.78;32.53
29239;BME280;16267;48.194;11.546;2023-04-06T11:47:35;96088.28;;;12.67;31.08
29239;BME280;16267;48.194;11.546;2023-04-06T11:50:09;96082.16;;;12.67;30.66
29239;BME280;16267;48.194;11.546;2023-04-06T11:52:35;96076.22;;;12.76;31.10
29239;BME280;16267;48.194;11.546;2023-04-06T11:57:37;96071.50;;;13.03;32.83
29239;BME280;16267;48.194;11.546;2023-04-06T12:00:03;96063.25;;;13.10;31.20
29239;BME280;16267;48.194;11.546;2023-04-06T12:02:29;96072.47;;;13.13;30.29
29239;BME280;16267;48.194;11.546;2023-04-06T12:04:57;96065.75;;;13.01;30.18
29239;BME280;16267;48.194;11.546;2023-04-06T12:07:23;96070.19;;;13.11;28.89
29239;BME280;16267;48.194;11.546;2023-04-06T12:09:49;96059.84;;;13.30;29.83
29239;BME280;16267;48.194;11.546;2023-04-06T12:12:15;96067.50;;;12.68;28.38
29239;BME280;16267;48.194;11.546;2023-04-06T12:14:41;96065.41;;;12.99;30.56
29239;BME280;16267;48.194;11.546;2023-04-06T12:17:07;96063.53;;;12.96;29.54
29239;BME280;16267;48.194;11.546;2023-04-06T12:19:33;96069.00;;;13.12;30.50
29239;BME280;16267;48.194;11.546;2023-04-06T12:21:58;96068.34;;;12.85;29.57
29239;BME280;16267;48.194;11.546;2023-04-06T12:24:24;96064.06;;;13.11;30.49
29239;BME280;16267;48.194;11.546;2023-04-06T12:26:50;96059.47;;;13.08;29.85
29239;BME280;16267;48.194;11.546;2023-04-06T12:29:16;96055.28;;;13.27;31.45
29239;BME280;16267;48.194;11.546;2023-04-06T12:31:42;96069.22;;;13.22;29.62
29239;BME280;16267;48.194;11.546;2023-04-06T12:34:10;96050.88;;;13.36;30.56
29239;BME280;16267;48.194;11.546;2023-04-06T12:36:37;96058.25;;;13.52;31.20
29239;BME280;16267;48.194;11.546;2023-04-06T12:39:03;96044.19;;;13.61;31.55
29239;BME280;16267;48.194;11.546;2023-04-06T12:41:29;96044.47;;;13.47;29.24
29239;BME280;16267;48.194;11.546;2023-04-06T12:43:55;96033.03;;;13.43;28.43
29239;BME280;16267;48.194;11.546;2023-04-06T12:46:23;96036.75;;;13.29;27.00
29239;BME280;16267;48.194;11.546;2023-04-06T12:48:48;96027.97;;;13.45;28.93
29239;BME280;16267;48.194;11.546;2023-04-06T12:51:15;96033.69;;;13.47;29.75
29239;BME280;16267;48.194;11.546;2023-04-06T12:53:41;96037.31;;;13.20;29.71
29239;BME280;16267;48.194;11.546;2023-04-06T12:56:15;96033.72;;;13.27;30.40
29239;BME280;16267;48.194;11.546;2023-04-06T12:58:43;96036.09;;;13.21;30.19
29239;BME280;16267;48.194;11.546;2023-04-06T13:01:10;96035.84;;;13.15;30.57
29239;BME280;16267;48.194;11.546;2023-04-06T13:03:39;96030.28;;;13.26;31.10
29239;BME280;16267;48.194;11.546;2023-04-06T13:06:05;96037.69;;;13.18;30.33
29239;BME280;16267;48.194;11.546;2023-04-06T13:08:31;96029.44;;;13.29;30.13
29239;BME280;16267;48.194;11.546;2023-04-06T13:10:57;96032.88;;;13.10;29.08
29239;BME280;16267;48.194;11.546;2023-04-06T13:13:25;96024.31;;;13.15;30.30
29239;BME280;16267;48.194;11.546;2023-04-06T13:16:04;96027.28;;;13.21;30.28
29239;BME280;16267;48.194;11.546;2023-04-06T13:18:31;96020.59;;;13.29;30.64
29239;BME280;16267;48.194;11.546;2023-04-06T13:20:58;96023.28;;;13.29;30.36
29239;BME280;16267;48.194;11.546;2023-04-06T13:23:25;96017.06;;;13.32;30.53